createdAt,value
2022-09-27T00:01:38.596Z,19.45
2022-09-27T00:04:04.861Z,19.44
2022-09-27T00:06:31.173Z,19.43
2022-09-27T00:08:57.492Z,19.42
2022-09-27T00:11:23.857Z,19.40
2022-09-27T00:13:50.215Z,19.39
2022-09-27T00:16:16.665Z,19.38
2022-09-27T00:18:42.875Z,19.37
2022-09-27T00:21:09.213Z,19.35
2022-09-27T00:23:35.543Z,19.34
2022-09-27T00:26:01.892Z,19.32
2022-09-27T00:28:28.208Z,19.31
2022-09-27T00:30:54.603Z,19.30
2022-09-27T00:33:20.900Z,19.29
2022-09-27T00:35:47.223Z,19.29
2022-09-27T00:38:13.593Z,19.29
2022-09-27T00:40:39.952Z,19.28
2022-09-27T00:43:06.270Z,19.27
2022-09-27T00:45:32.618Z,19.24
2022-09-27T00:47:58.952Z,19.21
2022-09-27T00:50:25.279Z,19.20
2022-09-27T00:52:51.655Z,19.17
2022-09-27T00:55:17.964Z,19.16
2022-09-27T00:57:44.318Z,19.15
2022-09-27T01:00:10.664Z,19.14
2022-09-27T01:02:37.016Z,19.13
2022-09-27T01:05:03.329Z,19.10
2022-09-27T01:07:29.665Z,19.02
2022-09-27T01:09:55.980Z,18.94
2022-09-27T01:12:22.307Z,18.87
2022-09-27T01:14:48.622Z,18.86
2022-09-27T01:17:14.990Z,18.82
2022-09-27T01:19:41.322Z,18.79
2022-09-27T01:22:07.670Z,18.80
2022-09-27T01:24:33.995Z,18.81
2022-09-27T01:27:00.335Z,18.82
2022-09-27T01:29:26.675Z,18.79
2022-09-27T01:31:53.011Z,18.76
2022-09-27T01:34:19.341Z,18.74
2022-09-27T01:36:45.664Z,18.69
2022-09-27T01:39:12.012Z,18.66
2022-09-27T01:41:38.348Z,18.65
2022-09-27T01:44:04.681Z,18.65
2022-09-27T01:46:31.048Z,18.67
2022-09-27T01:48:57.340Z,18.68
2022-09-27T01:51:23.693Z,18.63
2022-09-27T01:53:50.037Z,18.56
2022-09-27T01:56:16.360Z,18.53
2022-09-27T01:58:42.676Z,18.50
2022-09-27T02:01:09.076Z,18.52
2022-09-27T02:03:35.366Z,18.55
2022-09-27T02:06:01.699Z,18.56
2022-09-27T02:08:28.014Z,18.52
2022-09-27T02:10:54.403Z,18.44
2022-09-27T02:13:20.721Z,18.43
2022-09-27T02:15:47.085Z,18.47
2022-09-27T02:18:13.377Z,18.43
2022-09-27T02:20:39.697Z,18.41
2022-09-27T02:23:06.027Z,18.41
2022-09-27T02:25:32.360Z,18.41
2022-09-27T02:27:58.702Z,18.40
2022-09-27T02:30:25.037Z,18.38
2022-09-27T02:32:51.357Z,18.38
2022-09-27T02:35:17.736Z,18.40
2022-09-27T02:37:44.049Z,18.37
2022-09-27T02:40:10.448Z,18.36
2022-09-27T02:42:36.713Z,18.37
2022-09-27T02:45:03.027Z,18.34
2022-09-27T02:47:29.350Z,18.31
2022-09-27T02:49:55.697Z,18.30
2022-09-27T02:52:22.045Z,18.29
2022-09-27T02:54:48.381Z,18.30
2022-09-27T02:57:14.723Z,18.29
2022-09-27T02:59:41.041Z,18.30
2022-09-27T03:02:11.159Z,18.29
2022-09-27T03:04:33.706Z,18.28
2022-09-27T03:07:00.047Z,18.27
2022-09-27T03:09:26.385Z,18.30
2022-09-27T03:11:52.714Z,18.30
2022-09-27T03:14:19.058Z,18.28
2022-09-27T03:16:45.416Z,18.25
2022-09-27T03:19:11.748Z,18.19
2022-09-27T03:21:38.061Z,18.13
2022-09-27T03:24:04.407Z,18.10
2022-09-27T03:26:30.740Z,18.09
2022-09-27T03:28:57.063Z,18.10
2022-09-27T03:31:23.454Z,18.10
2022-09-27T03:33:49.755Z,18.10
2022-09-27T03:36:16.076Z,18.08
2022-09-27T03:38:42.393Z,18.08
2022-09-27T03:41:08.729Z,18.06
2022-09-27T03:43:35.063Z,18.07
2022-09-27T03:46:01.454Z,18.05
2022-09-27T03:48:28.404Z,18.02
2022-09-27T03:50:54.075Z,17.99
2022-09-27T03:53:20.436Z,17.95
2022-09-27T03:55:46.785Z,17.94
2022-09-27T03:58:13.116Z,17.97
2022-09-27T04:00:39.482Z,17.98
2022-09-27T04:03:05.831Z,18.00
2022-09-27T04:05:32.154Z,17.99
2022-09-27T04:07:58.498Z,17.96
2022-09-27T04:10:24.842Z,17.95
2022-09-27T04:12:51.184Z,17.95
2022-09-27T04:15:17.560Z,17.93
2022-09-27T04:17:43.845Z,17.91
2022-09-27T04:20:10.187Z,17.92
2022-09-27T04:22:36.524Z,17.93
2022-09-27T04:25:02.839Z,17.95
2022-09-27T04:27:29.189Z,17.93
2022-09-27T04:29:55.510Z,17.90
2022-09-27T04:32:21.850Z,17.89
2022-09-27T04:34:48.199Z,17.91
2022-09-27T04:37:14.536Z,17.94
2022-09-27T04:39:40.854Z,17.97
2022-09-27T04:42:07.194Z,18.01
2022-09-27T04:44:33.524Z,18.04
2022-09-27T04:46:59.904Z,18.07
2022-09-27T04:49:26.208Z,18.09
2022-09-27T04:51:52.525Z,18.08
2022-09-27T04:54:18.856Z,18.08
2022-09-27T04:56:45.214Z,18.08
2022-09-27T04:59:11.594Z,18.09
2022-09-27T05:01:37.954Z,18.09
2022-09-27T05:04:04.242Z,18.09
2022-09-27T05:06:30.582Z,18.07
2022-09-27T05:08:56.930Z,18.03
2022-09-27T05:11:23.314Z,18.03
2022-09-27T05:13:49.644Z,18.01
2022-09-27T05:16:16.051Z,18.01
2022-09-27T05:18:42.373Z,18.01
2022-09-27T05:21:08.699Z,18.01
2022-09-27T05:23:35.068Z,18.01
2022-09-27T05:26:01.412Z,18.00
2022-09-27T05:28:27.736Z,18.01
2022-09-27T05:30:54.136Z,18.00
2022-09-27T05:33:20.402Z,18.00
2022-09-27T05:35:46.744Z,17.98
2022-09-27T05:38:13.086Z,17.96
2022-09-27T05:40:41.993Z,17.95
2022-09-27T05:43:05.780Z,17.94
2022-09-27T05:45:32.109Z,17.92
2022-09-27T05:47:58.441Z,17.91
2022-09-27T05:50:24.890Z,17.92
2022-09-27T05:52:51.233Z,17.89
2022-09-27T05:55:17.606Z,17.88
2022-09-27T05:57:43.950Z,17.88
2022-09-27T06:00:10.277Z,17.83
2022-09-27T06:02:36.673Z,17.79
2022-09-27T06:05:02.988Z,17.75
2022-09-27T06:07:29.310Z,17.74
2022-09-27T06:09:55.650Z,17.74
2022-09-27T06:12:22.043Z,17.76
2022-09-27T06:14:48.379Z,17.78
2022-09-27T06:17:14.699Z,17.81
2022-09-27T06:19:41.090Z,17.82
2022-09-27T06:22:07.431Z,17.81
2022-09-27T06:24:33.746Z,17.79
2022-09-27T06:27:00.082Z,17.82
2022-09-27T06:29:26.419Z,17.85
2022-09-27T06:31:52.764Z,17.88
2022-09-27T06:34:19.117Z,17.90
2022-09-27T06:36:47.155Z,17.93
2022-09-27T06:39:11.889Z,17.93
2022-09-27T06:41:38.196Z,17.94
2022-09-27T06:44:04.513Z,17.95
2022-09-27T06:46:30.870Z,17.96
2022-09-27T06:48:57.249Z,17.95
2022-09-27T06:51:23.589Z,17.92
2022-09-27T06:53:49.898Z,17.91
2022-09-27T06:56:16.257Z,17.91
2022-09-27T06:58:42.595Z,17.91
2022-09-27T07:01:08.953Z,17.93
2022-09-27T07:03:40.111Z,17.97
2022-09-27T07:06:01.594Z,18.00
2022-09-27T07:08:27.935Z,18.03
2022-09-27T07:10:54.316Z,18.06
2022-09-27T07:13:20.666Z,18.09
2022-09-27T07:15:46.995Z,18.12
2022-09-27T07:18:13.329Z,18.15
2022-09-27T07:20:39.688Z,18.18
2022-09-27T07:23:06.017Z,18.22
2022-09-27T07:25:32.344Z,18.24
2022-09-27T07:27:58.671Z,18.27
2022-09-27T07:30:25.096Z,18.31
2022-09-27T07:32:51.369Z,18.38
2022-09-27T07:35:17.768Z,18.46
2022-09-27T07:37:44.116Z,18.56
2022-09-27T07:40:10.472Z,18.62
2022-09-27T07:42:36.810Z,18.67
2022-09-27T07:45:07.266Z,18.72
2022-09-27T07:47:29.504Z,18.75
2022-09-27T07:49:55.832Z,18.78
2022-09-27T07:52:22.152Z,18.81
2022-09-27T07:54:48.479Z,18.82
2022-09-27T07:57:14.848Z,18.82
2022-09-27T07:59:41.173Z,18.80
2022-09-27T08:02:07.538Z,18.76
2022-09-27T08:04:33.839Z,18.73
2022-09-27T08:07:00.178Z,18.72
2022-09-27T08:09:26.516Z,18.71
2022-09-27T08:11:52.857Z,18.66
2022-09-27T08:14:19.190Z,18.58
2022-09-27T08:16:45.604Z,18.52
2022-09-27T08:19:11.936Z,18.47
2022-09-27T08:21:38.180Z,18.44
2022-09-27T08:24:04.534Z,18.45
2022-09-27T08:26:30.958Z,18.45
2022-09-27T08:28:57.335Z,18.44
2022-09-27T08:31:23.706Z,18.43
2022-09-27T08:33:49.984Z,18.43
2022-09-27T08:36:16.307Z,18.43
2022-09-27T08:38:42.636Z,18.46
2022-09-27T08:41:09.000Z,18.49
2022-09-27T08:43:35.322Z,18.54
2022-09-27T08:46:01.741Z,18.59
2022-09-27T08:48:27.962Z,18.66
2022-09-27T08:50:54.528Z,18.67
2022-09-27T08:53:20.878Z,18.67
2022-09-27T08:55:47.222Z,18.71
2022-09-27T08:58:13.541Z,18.74
2022-09-27T09:00:39.942Z,18.74
2022-09-27T09:03:06.222Z,18.74
2022-09-27T09:05:32.543Z,18.75
2022-09-27T09:07:58.876Z,18.79
2022-09-27T09:10:25.248Z,18.86
2022-09-27T09:12:51.585Z,18.96
2022-09-27T09:15:17.914Z,19.05
2022-09-27T09:17:44.246Z,19.14
2022-09-27T09:20:14.807Z,19.27
2022-09-27T09:22:36.917Z,19.39
2022-09-27T09:25:03.229Z,19.47
2022-09-27T09:27:29.590Z,19.51
2022-09-27T09:29:55.925Z,19.52
2022-09-27T09:32:22.275Z,19.52
2022-09-27T09:34:48.705Z,19.52
2022-09-27T09:37:14.939Z,19.53
2022-09-27T09:39:41.264Z,19.57
2022-09-27T09:42:07.618Z,19.61
2022-09-27T09:44:33.967Z,19.69
2022-09-27T09:47:00.302Z,19.77
2022-09-27T09:49:26.643Z,19.84
2022-09-27T09:51:52.979Z,19.91
2022-09-27T09:54:19.315Z,19.98
2022-09-27T09:56:45.641Z,20.05
2022-09-27T09:59:11.969Z,20.05
2022-09-27T10:01:38.319Z,20.07
2022-09-27T10:04:04.658Z,20.08
2022-09-27T10:06:31.035Z,20.08
2022-09-27T10:08:57.382Z,20.11
2022-09-27T10:11:23.705Z,20.15
2022-09-27T10:13:50.035Z,20.16
2022-09-27T10:16:16.433Z,20.17
2022-09-27T10:18:46.386Z,20.15
2022-09-27T10:21:09.054Z,20.15
2022-09-27T10:23:35.398Z,20.19
2022-09-27T10:26:01.714Z,20.35
2022-09-27T10:28:28.054Z,20.54
2022-09-27T10:30:54.378Z,20.80
2022-09-27T10:33:20.726Z,20.97
2022-09-27T10:35:47.077Z,21.11
2022-09-27T10:38:13.461Z,21.26
2022-09-27T10:40:39.835Z,21.33
2022-09-27T10:43:06.105Z,21.34
2022-09-27T10:45:32.524Z,21.34
2022-09-27T10:47:58.811Z,21.35
2022-09-27T10:50:49.219Z,21.37
2022-09-27T10:52:51.478Z,21.53
2022-09-27T10:55:17.809Z,21.89
2022-09-27T10:57:45.280Z,22.25
2022-09-27T11:00:10.555Z,22.64
2022-09-27T11:02:36.965Z,23.02
2022-09-27T11:05:03.306Z,23.35
2022-09-27T11:07:29.591Z,23.68
2022-09-27T11:09:55.921Z,24.04
2022-09-27T11:12:22.259Z,24.46
2022-09-27T11:14:48.600Z,24.82
2022-09-27T11:17:14.942Z,25.10
2022-09-27T11:19:41.288Z,25.37
2022-09-27T11:22:07.629Z,25.64
2022-09-27T11:24:33.969Z,25.87
2022-09-27T11:27:00.336Z,26.09
2022-09-27T11:29:26.678Z,26.17
2022-09-27T11:31:53.059Z,26.09
2022-09-27T11:34:19.357Z,26.02
2022-09-27T11:36:45.715Z,25.99
2022-09-27T11:39:12.038Z,25.95
2022-09-27T11:41:38.376Z,26.03
2022-09-27T11:44:04.718Z,26.22
2022-09-27T11:46:38.531Z,26.43
2022-09-27T11:48:57.425Z,26.62
2022-09-27T11:51:23.763Z,26.73
2022-09-27T11:53:50.141Z,26.65
2022-09-27T11:56:16.479Z,26.52
2022-09-27T11:58:42.829Z,26.39
2022-09-27T12:01:09.170Z,26.33
2022-09-27T12:03:35.509Z,26.36
2022-09-27T12:06:06.984Z,26.29
2022-09-27T12:08:28.147Z,26.30
2022-09-27T12:10:54.465Z,26.28
2022-09-27T12:13:20.812Z,26.16
2022-09-27T12:15:47.221Z,26.02
2022-09-27T12:18:13.509Z,25.91
2022-09-27T12:20:39.848Z,25.86
2022-09-27T12:23:06.216Z,25.81
2022-09-27T12:25:32.534Z,25.71
2022-09-27T12:27:58.884Z,25.59
2022-09-27T12:30:25.224Z,25.54
2022-09-27T12:32:51.611Z,25.59
2022-09-27T12:35:17.942Z,25.74
2022-09-27T12:37:44.282Z,25.95
2022-09-27T12:40:10.599Z,26.11
2022-09-27T12:42:36.940Z,26.23
2022-09-27T12:45:03.256Z,26.24
2022-09-27T12:47:29.610Z,26.18
2022-09-27T12:50:01.040Z,26.13
2022-09-27T12:52:22.266Z,26.10
2022-09-27T12:54:48.584Z,26.09
2022-09-27T12:57:18.087Z,26.13
2022-09-27T12:59:41.262Z,26.19
2022-09-27T13:02:07.698Z,26.20
2022-09-27T13:04:33.936Z,26.21
2022-09-27T13:07:00.285Z,26.24
2022-09-27T13:09:26.580Z,26.29
2022-09-27T13:11:52.927Z,26.31
2022-09-27T13:14:19.240Z,26.25
2022-09-27T13:16:45.562Z,26.22
2022-09-27T13:19:12.030Z,26.24
2022-09-27T13:21:38.280Z,26.24
2022-09-27T13:24:04.596Z,26.21
2022-09-27T13:26:30.973Z,26.18
2022-09-27T13:28:57.318Z,26.18
2022-09-27T13:31:23.672Z,26.14
2022-09-27T13:33:49.951Z,26.11
2022-09-27T13:36:16.340Z,26.08
2022-09-27T13:38:42.686Z,26.08
2022-09-27T13:41:09.005Z,26.08
2022-09-27T13:43:35.352Z,26.05
2022-09-27T13:46:01.689Z,26.01
2022-09-27T13:48:28.007Z,25.98
2022-09-27T13:50:54.329Z,25.95
2022-09-27T13:53:20.652Z,25.91
2022-09-27T13:55:46.977Z,25.86
2022-09-27T13:58:13.320Z,25.83
2022-09-27T14:00:39.789Z,25.77
2022-09-27T14:03:05.964Z,25.70
2022-09-27T14:05:32.282Z,25.65
2022-09-27T14:07:58.608Z,25.59
2022-09-27T14:10:24.948Z,25.51
2022-09-27T14:12:51.299Z,25.41
2022-09-27T14:15:17.636Z,25.29
2022-09-27T14:17:43.953Z,25.18
2022-09-27T14:20:10.316Z,25.09
2022-09-27T14:22:39.058Z,25.00
2022-09-27T14:25:02.946Z,24.90
2022-09-27T14:27:29.273Z,24.80
2022-09-27T14:29:55.609Z,24.70
2022-09-27T14:32:21.933Z,24.60
2022-09-27T14:34:48.255Z,24.50
2022-09-27T14:37:14.583Z,24.44
2022-09-27T14:39:40.899Z,24.37
2022-09-27T14:42:07.227Z,24.31
2022-09-27T14:44:33.573Z,24.21
2022-09-27T14:46:59.940Z,24.11
2022-09-27T14:49:26.253Z,24.01
2022-09-27T14:51:53.649Z,23.93
2022-09-27T14:54:19.965Z,23.84
2022-09-27T14:56:49.047Z,23.76
2022-09-27T14:59:12.663Z,23.69
2022-09-27T15:01:38.980Z,23.65
2022-09-27T15:04:05.462Z,23.65
2022-09-27T15:06:31.663Z,23.64
2022-09-27T15:08:57.985Z,23.60
2022-09-27T15:11:24.307Z,23.50
2022-09-27T15:13:50.678Z,23.42
2022-09-27T15:16:17.086Z,23.31
2022-09-27T15:18:43.337Z,23.15
2022-09-27T15:21:09.719Z,23.15
2022-09-27T15:23:36.038Z,23.13
2022-09-27T15:26:02.381Z,23.00
2022-09-27T15:28:28.699Z,22.82
2022-09-27T15:30:55.090Z,22.61
2022-09-27T15:33:21.419Z,22.40
2022-09-27T15:35:47.744Z,22.17
